sensor_id;sensor_type;location;lat;lon;timestamp;temperature;humidity
23633;DHT22;11993;48.748;9.166;2024-03-29T00:00:40;6.70;59.00
23633;DHT22;11993;48.748;9.166;2024-03-29T00:03:06;6.70;59.10
23633;DHT22;11993;48.748;9.166;2024-03-29T00:05:33;6.70;59.10
23633;DHT22;11993;48.748;9.166;2024-03-29T00:07:59;6.70;59.10
23633;DHT22;11993;48.748;9.166;2024-03-29T00:10:25;6.70;59.10
23633;DHT22;11993;48.748;9.166;2024-03-29T00:12:50;6.70;59.20
23633;DHT22;11993;48.748;9.166;2024-03-29T00:15:16;6.60;59.40
23633;DHT22;11993;48.748;9.166;2024-03-29T00:17:41;6.70;59.30
23633;DHT22;11993;48.748;9.166;2024-03-29T00:20:07;6.60;59.80
23633;DHT22;11993;48.748;9.166;2024-03-29T00:22:33;6.60;59.80
23633;DHT22;11993;48.748;9.166;2024-03-29T00:24:59;6.50;60.20
23633;DHT22;11993;48.748;9.166;2024-03-29T00:27:24;6.50;60.40
23633;DHT22;11993;48.748;9.166;2024-03-29T00:29:52;6.40;60.60
23633;DHT22;11993;48.748;9.166;2024-03-29T00:32:21;6.50;60.80
23633;DHT22;11993;48.748;9.166;2024-03-29T00:34:49;6.30;61.40
23633;DHT22;11993;48.748;9.166;2024-03-29T00:37:15;6.40;61.50
23633;DHT22;11993;48.748;9.166;2024-03-29T00:39:40;6.40;61.30
23633;DHT22;11993;48.748;9.166;2024-03-29T00:42:06;6.40;61.60
23633;DHT22;11993;48.748;9.166;2024-03-29T00:44:34;6.50;61.40
23633;DHT22;11993;48.748;9.166;2024-03-29T00:47:01;6.60;61.20
23633;DHT22;11993;48.748;9.166;2024-03-29T00:49:26;6.60;61.20
23633;DHT22;11993;48.748;9.166;2024-03-29T00:51:52;6.60;61.00
23633;DHT22;11993;48.748;9.166;2024-03-29T00:54:18;6.70;60.80
23633;DHT22;11993;48.748;9.166;2024-03-29T00:56:44;6.70;60.80
23633;DHT22;11993;48.748;9.166;2024-03-29T00:59:09;6.70;60.80
23633;DHT22;11993;48.748;9.166;2024-03-29T01:01:35;6.80;60.60
23633;DHT22;11993;48.748;9.166;2024-03-29T01:04:00;6.80;60.70
23633;DHT22;11993;48.748;9.166;2024-03-29T01:06:26;6.80;60.60
23633;DHT22;11993;48.748;9.166;2024-03-29T01:08:51;7.00;60.10
23633;DHT22;11993;48.748;9.166;2024-03-29T01:11:17;7.00;60.00
23633;DHT22;11993;48.748;9.166;2024-03-29T01:13:42;7.10;59.70
23633;DHT22;11993;48.748;9.166;2024-03-29T01:16:08;7.10;59.60
23633;DHT22;11993;48.748;9.166;2024-03-29T01:18:33;7.10;59.90
23633;DHT22;11993;48.748;9.166;2024-03-29T01:20:59;7.20;59.60
23633;DHT22;11993;48.748;9.166;2024-03-29T01:23:25;7.20;59.70
23633;DHT22;11993;48.748;9.166;2024-03-29T01:25:50;7.20;59.70
23633;DHT22;11993;48.748;9.166;2024-03-29T01:28:16;7.20;59.60
23633;DHT22;11993;48.748;9.166;2024-03-29T01:30:41;7.10;60.10
23633;DHT22;11993;48.748;9.166;2024-03-29T01:33:07;7.10;60.40
23633;DHT22;11993;48.748;9.166;2024-03-29T01:35:32;6.90;60.80
23633;DHT22;11993;48.748;9.166;2024-03-29T01:37:58;7.00;60.60
23633;DHT22;11993;48.748;9.166;2024-03-29T01:40:23;7.00;60.60
23633;DHT22;11993;48.748;9.166;2024-03-29T01:42:53;6.90;60.70
23633;DHT22;11993;48.748;9.166;2024-03-29T01:45:18;6.90;60.80
23633;DHT22;11993;48.748;9.166;2024-03-29T01:47:45;7.00;60.60
23633;DHT22;11993;48.748;9.166;2024-03-29T01:50:11;6.90;60.80
23633;DHT22;11993;48.748;9.166;2024-03-29T01:52:37;7.00;60.40
23633;DHT22;11993;48.748;9.166;2024-03-29T01:55:02;7.00;60.30
23633;DHT22;11993;48.748;9.166;2024-03-29T01:57:28;7.00;60.70
23633;DHT22;11993;48.748;9.166;2024-03-29T01:59:54;7.00;60.30
23633;DHT22;11993;48.748;9.166;2024-03-29T02:02:20;7.00;60.30
23633;DHT22;11993;48.748;9.166;2024-03-29T02:04:46;7.10;60.00
23633;DHT22;11993;48.748;9.166;2024-03-29T02:07:12;7.10;59.80
23633;DHT22;11993;48.748;9.166;2024-03-29T02:09:38;7.10;59.90
23633;DHT22;11993;48.748;9.166;2024-03-29T02:12:04;7.20;59.40
23633;DHT22;11993;48.748;9.166;2024-03-29T02:14:29;7.20;59.40
23633;DHT22;11993;48.748;9.166;2024-03-29T02:16:55;7.20;59.40
23633;DHT22;11993;48.748;9.166;2024-03-29T02:19:21;7.20;59.40
23633;DHT22;11993;48.748;9.166;2024-03-29T02:21:48;7.30;59.10
23633;DHT22;11993;48.748;9.166;2024-03-29T02:24:15;7.30;58.80
23633;DHT22;11993;48.748;9.166;2024-03-29T02:26:43;7.40;58.60
23633;DHT22;11993;48.748;9.166;2024-03-29T02:29:10;7.40;58.60
23633;DHT22;11993;48.748;9.166;2024-03-29T02:31:36;7.40;58.80
23633;DHT22;11993;48.748;9.166;2024-03-29T02:34:01;7.40;58.90
23633;DHT22;11993;48.748;9.166;2024-03-29T02:36:27;7.40;58.80
23633;DHT22;11993;48.748;9.166;2024-03-29T02:38:52;7.30;59.00
23633;DHT22;11993;48.748;9.166;2024-03-29T02:41:18;7.30;59.10
23633;DHT22;11993;48.748;9.166;2024-03-29T02:43:44;7.20;59.30
23633;DHT22;11993;48.748;9.166;2024-03-29T02:46:09;7.30;59.40
23633;DHT22;11993;48.748;9.166;2024-03-29T02:48:35;7.20;59.30
23633;DHT22;11993;48.748;9.166;2024-03-29T02:51:00;7.30;59.30
23633;DHT22;11993;48.748;9.166;2024-03-29T02:53:26;7.30;59.40
23633;DHT22;11993;48.748;9.166;2024-03-29T02:55:51;7.20;59.40
23633;DHT22;11993;48.748;9.166;2024-03-29T02:58:17;7.30;59.40
23633;DHT22;11993;48.748;9.166;2024-03-29T03:00:42;7.30;59.80
23633;DHT22;11993;48.748;9.166;2024-03-29T03:03:08;7.30;59.30
23633;DHT22;11993;48.748;9.166;2024-03-29T03:05:33;7.40;58.90
23633;DHT22;11993;48.748;9.166;2024-03-29T03:07:59;7.30;59.40
23633;DHT22;11993;48.748;9.166;2024-03-29T03:10:47;7.20;59.70
23633;DHT22;11993;48.748;9.166;2024-03-29T03:13:22;7.10;60.10
23633;DHT22;11993;48.748;9.166;2024-03-29T03:15:47;7.10;60.20
23633;DHT22;11993;48.748;9.166;2024-03-29T03:18:13;7.10;60.30
23633;DHT22;11993;48.748;9.166;2024-03-29T03:20:38;7.20;60.00
23633;DHT22;11993;48.748;9.166;2024-03-29T03:23:05;7.20;60.10
23633;DHT22;11993;48.748;9.166;2024-03-29T03:25:30;7.30;59.80
23633;DHT22;11993;48.748;9.166;2024-03-29T03:27:56;7.30;59.90
23633;DHT22;11993;48.748;9.166;2024-03-29T03:30:22;7.30;59.90
23633;DHT22;11993;48.748;9.166;2024-03-29T03:32:47;7.30;60.00
23633;DHT22;11993;48.748;9.166;2024-03-29T03:35:13;7.20;60.00
23633;DHT22;11993;48.748;9.166;2024-03-29T03:37:39;7.30;59.80
23633;DHT22;11993;48.748;9.166;2024-03-29T03:40:05;7.40;59.40
23633;DHT22;11993;48.748;9.166;2024-03-29T03:42:32;7.40;59.30
23633;DHT22;11993;48.748;9.166;2024-03-29T03:44:57;7.50;59.00
23633;DHT22;11993;48.748;9.166;2024-03-29T03:47:23;7.50;58.80
23633;DHT22;11993;48.748;9.166;2024-03-29T03:49:48;7.60;58.60
23633;DHT22;11993;48.748;9.166;2024-03-29T03:52:14;7.60;58.20
23633;DHT22;11993;48.748;9.166;2024-03-29T03:54:39;7.60;58.30
23633;DHT22;11993;48.748;9.166;2024-03-29T03:57:05;7.70;58.10
23633;DHT22;11993;48.748;9.166;2024-03-29T03:59:30;7.70;57.50
23633;DHT22;11993;48.748;9.166;2024-03-29T04:01:56;8.00;55.90
23633;DHT22;11993;48.748;9.166;2024-03-29T04:04:22;8.10;54.50
23633;DHT22;11993;48.748;9.166;2024-03-29T04:06:47;8.20;54.00
23633;DHT22;11993;48.748;9.166;2024-03-29T04:09:16;8.30;53.70
23633;DHT22;11993;48.748;9.166;2024-03-29T04:11:42;8.30;53.10
23633;DHT22;11993;48.748;9.166;2024-03-29T04:14:07;8.40;52.80
23633;DHT22;11993;48.748;9.166;2024-03-29T04:16:33;8.30;53.30
23633;DHT22;11993;48.748;9.166;2024-03-29T04:18:58;8.30;53.50
23633;DHT22;11993;48.748;9.166;2024-03-29T04:21:24;8.30;53.50
23633;DHT22;11993;48.748;9.166;2024-03-29T04:23:49;8.30;53.40
23633;DHT22;11993;48.748;9.166;2024-03-29T04:26:15;8.30;53.40
23633;DHT22;11993;48.748;9.166;2024-03-29T04:28:41;8.40;53.20
23633;DHT22;11993;48.748;9.166;2024-03-29T04:31:07;8.20;53.90
23633;DHT22;11993;48.748;9.166;2024-03-29T04:33:32;8.10;55.00
23633;DHT22;11993;48.748;9.166;2024-03-29T04:35:59;8.10;55.40
23633;DHT22;11993;48.748;9.166;2024-03-29T04:38:26;8.10;55.20
23633;DHT22;11993;48.748;9.166;2024-03-29T04:40:53;8.20;54.60
23633;DHT22;11993;48.748;9.166;2024-03-29T04:43:21;8.40;53.20
23633;DHT22;11993;48.748;9.166;2024-03-29T04:45:46;8.40;53.60
23633;DHT22;11993;48.748;9.166;2024-03-29T04:48:12;8.40;53.70
23633;DHT22;11993;48.748;9.166;2024-03-29T04:50:38;8.50;53.40
23633;DHT22;11993;48.748;9.166;2024-03-29T04:53:04;8.40;53.60
23633;DHT22;11993;48.748;9.166;2024-03-29T04:55:30;8.50;53.20
23633;DHT22;11993;48.748;9.166;2024-03-29T04:57:56;8.60;53.20
23633;DHT22;11993;48.748;9.166;2024-03-29T05:00:21;8.60;53.40
23633;DHT22;11993;48.748;9.166;2024-03-29T05:02:47;8.60;53.20
23633;DHT22;11993;48.748;9.166;2024-03-29T05:05:12;8.40;54.60
23633;DHT22;11993;48.748;9.166;2024-03-29T05:07:38;8.40;54.90
23633;DHT22;11993;48.748;9.166;2024-03-29T05:10:04;8.20;55.00
23633;DHT22;11993;48.748;9.166;2024-03-29T05:12:32;8.20;55.30
23633;DHT22;11993;48.748;9.166;2024-03-29T05:14:58;8.20;55.40
23633;DHT22;11993;48.748;9.166;2024-03-29T05:17:23;8.20;55.20
23633;DHT22;11993;48.748;9.166;2024-03-29T05:19:55;8.20;54.90
23633;DHT22;11993;48.748;9.166;2024-03-29T05:22:21;8.20;55.90
23633;DHT22;11993;48.748;9.166;2024-03-29T05:24:47;8.20;55.70
23633;DHT22;11993;48.748;9.166;2024-03-29T05:27:12;8.10;55.50
23633;DHT22;11993;48.748;9.166;2024-03-29T05:29:38;8.20;55.60
23633;DHT22;11993;48.748;9.166;2024-03-29T05:32:04;8.10;56.00
23633;DHT22;11993;48.748;9.166;2024-03-29T05:34:30;8.10;56.70
23633;DHT22;11993;48.748;9.166;2024-03-29T05:36:56;8.10;56.70
23633;DHT22;11993;48.748;9.166;2024-03-29T05:39:21;8.10;56.60
23633;DHT22;11993;48.748;9.166;2024-03-29T05:41:47;8.10;57.00
23633;DHT22;11993;48.748;9.166;2024-03-29T05:44:13;8.00;57.20
23633;DHT22;11993;48.748;9.166;2024-03-29T05:46:39;8.10;57.00
23633;DHT22;11993;48.748;9.166;2024-03-29T05:49:06;8.10;57.00
23633;DHT22;11993;48.748;9.166;2024-03-29T05:51:32;8.30;56.50
23633;DHT22;11993;48.748;9.166;2024-03-29T05:53:59;8.30;56.60
23633;DHT22;11993;48.748;9.166;2024-03-29T05:56:24;8.40;56.00
23633;DHT22;11993;48.748;9.166;2024-03-29T05:58:50;8.40;55.70
23633;DHT22;11993;48.748;9.166;2024-03-29T06:01:15;8.30;56.00
23633;DHT22;11993;48.748;9.166;2024-03-29T06:03:41;8.40;55.60
23633;DHT22;11993;48.748;9.166;2024-03-29T06:06:06;8.40;55.10
23633;DHT22;11993;48.748;9.166;2024-03-29T06:08:32;8.50;54.90
23633;DHT22;11993;48.748;9.166;2024-03-29T06:10:58;8.50;55.00
23633;DHT22;11993;48.748;9.166;2024-03-29T06:13:24;8.50;54.90
23633;DHT22;11993;48.748;9.166;2024-03-29T06:16:13;8.50;55.00
23633;DHT22;11993;48.748;9.166;2024-03-29T06:18:57;8.60;54.90
23633;DHT22;11993;48.748;9.166;2024-03-29T06:21:23;8.60;54.90
23633;DHT22;11993;48.748;9.166;2024-03-29T06:23:49;8.50;55.00
23633;DHT22;11993;48.748;9.166;2024-03-29T06:26:14;8.60;55.00
23633;DHT22;11993;48.748;9.166;2024-03-29T06:28:40;8.60;54.70
23633;DHT22;11993;48.748;9.166;2024-03-29T06:31:05;8.60;54.30
23633;DHT22;11993;48.748;9.166;2024-03-29T06:33:31;8.70;53.70
23633;DHT22;11993;48.748;9.166;2024-03-29T06:35:56;8.80;53.20
23633;DHT22;11993;48.748;9.166;2024-03-29T06:38:22;8.80;52.80
23633;DHT22;11993;48.748;9.166;2024-03-29T06:40:47;8.90;52.00
23633;DHT22;11993;48.748;9.166;2024-03-29T06:43:13;8.90;52.20
23633;DHT22;11993;48.748;9.166;2024-03-29T06:45:41;9.00;51.90
23633;DHT22;11993;48.748;9.166;2024-03-29T06:48:10;9.00;52.00
23633;DHT22;11993;48.748;9.166;2024-03-29T06:50:36;9.10;52.00
23633;DHT22;11993;48.748;9.166;2024-03-29T06:53:03;9.20;52.00
23633;DHT22;11993;48.748;9.166;2024-03-29T06:55:30;9.10;52.00
23633;DHT22;11993;48.748;9.166;2024-03-29T06:57:56;9.10;52.30
23633;DHT22;11993;48.748;9.166;2024-03-29T07:00:21;9.20;52.00
23633;DHT22;11993;48.748;9.166;2024-03-29T07:02:47;9.30;52.20
23633;DHT22;11993;48.748;9.166;2024-03-29T07:05:12;9.30;52.40
23633;DHT22;11993;48.748;9.166;2024-03-29T07:07:38;9.20;52.40
23633;DHT22;11993;48.748;9.166;2024-03-29T07:10:06;9.30;52.80
23633;DHT22;11993;48.748;9.166;2024-03-29T07:12:31;9.30;53.20
23633;DHT22;11993;48.748;9.166;2024-03-29T07:14:57;9.30;52.90
23633;DHT22;11993;48.748;9.166;2024-03-29T07:17:22;9.30;52.40
23633;DHT22;11993;48.748;9.166;2024-03-29T07:19:48;9.30;52.60
23633;DHT22;11993;48.748;9.166;2024-03-29T07:22:13;9.30;52.80
23633;DHT22;11993;48.748;9.166;2024-03-29T07:24:39;9.20;52.90
23633;DHT22;11993;48.748;9.166;2024-03-29T07:27:04;9.10;53.80
23633;DHT22;11993;48.748;9.166;2024-03-29T07:29:30;9.10;54.00
23633;DHT22;11993;48.748;9.166;2024-03-29T07:31:59;9.20;54.10
23633;DHT22;11993;48.748;9.166;2024-03-29T07:34:25;9.10;54.40
23633;DHT22;11993;48.748;9.166;2024-03-29T07:36:51;9.00;56.90
23633;DHT22;11993;48.748;9.166;2024-03-29T07:39:16;9.10;61.60
23633;DHT22;11993;48.748;9.166;2024-03-29T07:41:42;8.70;62.30
23633;DHT22;11993;48.748;9.166;2024-03-29T07:44:07;8.60;66.00
23633;DHT22;11993;48.748;9.166;2024-03-29T07:46:35;8.60;64.80
23633;DHT22;11993;48.748;9.166;2024-03-29T07:49:02;8.50;66.00
23633;DHT22;11993;48.748;9.166;2024-03-29T07:51:28;8.40;65.90
23633;DHT22;11993;48.748;9.166;2024-03-29T07:53:54;8.40;65.10
23633;DHT22;11993;48.748;9.166;2024-03-29T07:56:19;8.40;66.90
23633;DHT22;11993;48.748;9.166;2024-03-29T07:58:50;8.20;69.40
23633;DHT22;11993;48.748;9.166;2024-03-29T08:01:21;8.00;70.70
23633;DHT22;11993;48.748;9.166;2024-03-29T08:03:49;8.10;69.50
23633;DHT22;11993;48.748;9.166;2024-03-29T08:06:15;8.00;70.70
23633;DHT22;11993;48.748;9.166;2024-03-29T08:08:43;8.00;71.00
23633;DHT22;11993;48.748;9.166;2024-03-29T08:11:09;7.90;71.70
23633;DHT22;11993;48.748;9.166;2024-03-29T08:13:35;7.90;71.30
23633;DHT22;11993;48.748;9.166;2024-03-29T08:16:01;7.90;71.60
23633;DHT22;11993;48.748;9.166;2024-03-29T08:18:28;7.80;73.10
23633;DHT22;11993;48.748;9.166;2024-03-29T08:20:54;7.90;73.30
23633;DHT22;11993;48.748;9.166;2024-03-29T08:23:25;7.90;73.50
23633;DHT22;11993;48.748;9.166;2024-03-29T08:25:50;7.90;74.40
23633;DHT22;11993;48.748;9.166;2024-03-29T08:28:20;8.00;74.20
23633;DHT22;11993;48.748;9.166;2024-03-29T08:30:45;8.10;73.80
23633;DHT22;11993;48.748;9.166;2024-03-29T08:33:11;8.10;74.40
23633;DHT22;11993;48.748;9.166;2024-03-29T08:35:37;8.00;75.50
23633;DHT22;11993;48.748;9.166;2024-03-29T08:38:03;8.10;75.10
23633;DHT22;11993;48.748;9.166;2024-03-29T08:40:29;8.00;76.50
23633;DHT22;11993;48.748;9.166;2024-03-29T08:42:56;8.10;76.60
23633;DHT22;11993;48.748;9.166;2024-03-29T08:45:22;8.20;77.40
23633;DHT22;11993;48.748;9.166;2024-03-29T08:47:48;8.30;77.90
23633;DHT22;11993;48.748;9.166;2024-03-29T08:50:14;8.40;78.80
23633;DHT22;11993;48.748;9.166;2024-03-29T08:52:40;8.40;79.70
23633;DHT22;11993;48.748;9.166;2024-03-29T08:55:08;8.60;79.50
23633;DHT22;11993;48.748;9.166;2024-03-29T08:57:34;8.70;80.00
23633;DHT22;11993;48.748;9.166;2024-03-29T09:00:00;8.80;80.10
23633;DHT22;11993;48.748;9.166;2024-03-29T09:02:26;9.00;80.20
23633;DHT22;11993;48.748;9.166;2024-03-29T09:04:52;9.10;80.50
23633;DHT22;11993;48.748;9.166;2024-03-29T09:07:17;9.20;80.50
23633;DHT22;11993;48.748;9.166;2024-03-29T09:09:43;9.20;80.80
23633;DHT22;11993;48.748;9.166;2024-03-29T09:12:09;9.30;81.00
23633;DHT22;11993;48.748;9.166;2024-03-29T09:14:34;9.30;80.80
23633;DHT22;11993;48.748;9.166;2024-03-29T09:17:00;9.40;81.40
23633;DHT22;11993;48.748;9.166;2024-03-29T09:19:27;9.60;81.50
23633;DHT22;11993;48.748;9.166;2024-03-29T09:21:53;9.60;81.50
23633;DHT22;11993;48.748;9.166;2024-03-29T09:24:18;9.60;81.90
23633;DHT22;11993;48.748;9.166;2024-03-29T09:26:48;9.70;81.60
23633;DHT22;11993;48.748;9.166;2024-03-29T09:29:14;9.60;82.20
23633;DHT22;11993;48.748;9.166;2024-03-29T09:31:41;9.60;81.70
23633;DHT22;11993;48.748;9.166;2024-03-29T09:34:06;9.60;81.90
23633;DHT22;11993;48.748;9.166;2024-03-29T09:36:32;9.60;82.70
23633;DHT22;11993;48.748;9.166;2024-03-29T09:38:58;9.60;82.90
23633;DHT22;11993;48.748;9.166;2024-03-29T09:41:25;9.60;82.50
23633;DHT22;11993;48.748;9.166;2024-03-29T09:43:53;9.60;82.20
23633;DHT22;11993;48.748;9.166;2024-03-29T09:46:20;9.70;82.00
23633;DHT22;11993;48.748;9.166;2024-03-29T09:48:47;9.80;81.80
23633;DHT22;11993;48.748;9.166;2024-03-29T09:51:14;10.10;81.60
23633;DHT22;11993;48.748;9.166;2024-03-29T09:53:41;10.20;80.90
23633;DHT22;11993;48.748;9.166;2024-03-29T09:56:08;10.20;79.40
23633;DHT22;11993;48.748;9.166;2024-03-29T09:58:38;10.40;78.40
23633;DHT22;11993;48.748;9.166;2024-03-29T10:01:05;10.40;79.00
23633;DHT22;11993;48.748;9.166;2024-03-29T10:03:35;10.30;79.90
23633;DHT22;11993;48.748;9.166;2024-03-29T10:06:01;10.40;80.40
23633;DHT22;11993;48.748;9.166;2024-03-29T10:08:29;10.50;81.00
23633;DHT22;11993;48.748;9.166;2024-03-29T10:10:59;10.50;82.10
23633;DHT22;11993;48.748;9.166;2024-03-29T10:13:25;10.50;81.60
23633;DHT22;11993;48.748;9.166;2024-03-29T10:15:54;10.60;81.70
23633;DHT22;11993;48.748;9.166;2024-03-29T10:18:23;10.60;80.70
23633;DHT22;11993;48.748;9.166;2024-03-29T10:21:24;10.70;80.60
23633;DHT22;11993;48.748;9.166;2024-03-29T10:23:50;11.30;79.20
23633;DHT22;11993;48.748;9.166;2024-03-29T10:26:16;11.70;78.70
23633;DHT22;11993;48.748;9.166;2024-03-29T10:28:43;12.00;77.20
23633;DHT22;11993;48.748;9.166;2024-03-29T10:31:09;12.10;75.40
23633;DHT22;11993;48.748;9.166;2024-03-29T10:33:34;12.20;75.60
23633;DHT22;11993;48.748;9.166;2024-03-29T10:36:02;12.10;73.70
23633;DHT22;11993;48.748;9.166;2024-03-29T10:38:30;11.90;74.90
23633;DHT22;11993;48.748;9.166;2024-03-29T10:40:56;12.00;77.20
23633;DHT22;11993;48.748;9.166;2024-03-29T10:43:21;12.10;76.50
23633;DHT22;11993;48.748;9.166;2024-03-29T10:45:48;12.30;73.50
23633;DHT22;11993;48.748;9.166;2024-03-29T10:48:15;12.20;72.40
23633;DHT22;11993;48.748;9.166;2024-03-29T10:50:42;12.10;73.70
23633;DHT22;11993;48.748;9.166;2024-03-29T10:53:09;11.90;76.10
23633;DHT22;11993;48.748;9.166;2024-03-29T10:55:36;11.70;75.30
23633;DHT22;11993;48.748;9.166;2024-03-29T10:58:04;11.80;73.60
23633;DHT22;11993;48.748;9.166;2024-03-29T11:00:37;11.90;75.40
23633;DHT22;11993;48.748;9.166;2024-03-29T11:06:04;11.90;74.20
23633;DHT22;11993;48.748;9.166;2024-03-29T11:08:33;12.40;73.70
23633;DHT22;11993;48.748;9.166;2024-03-29T11:11:01;12.70;73.10
23633;DHT22;11993;48.748;9.166;2024-03-29T11:16:14;12.50;71.90
23633;DHT22;11993;48.748;9.166;2024-03-29T11:18:42;12.60;71.60
23633;DHT22;11993;48.748;9.166;2024-03-29T11:21:08;12.80;70.70
23633;DHT22;11993;48.748;9.166;2024-03-29T11:23:35;13.10;70.60
23633;DHT22;11993;48.748;9.166;2024-03-29T11:26:01;13.20;69.40
23633;DHT22;11993;48.748;9.166;2024-03-29T11:28:30;12.90;74.10
23633;DHT22;11993;48.748;9.166;2024-03-29T11:31:03;13.00;75.20
23633;DHT22;11993;48.748;9.166;2024-03-29T11:38:37;13.00;76.00
23633;DHT22;11993;48.748;9.166;2024-03-29T11:41:07;12.90;77.00
23633;DHT22;11993;48.748;9.166;2024-03-29T11:43:34;12.70;76.50
23633;DHT22;11993;48.748;9.166;2024-03-29T11:46:01;12.90;75.70
23633;DHT22;11993;48.748;9.166;2024-03-29T11:48:28;13.10;75.20
23633;DHT22;11993;48.748;9.166;2024-03-29T11:50:54;13.10;75.10
23633;DHT22;11993;48.748;9.166;2024-03-29T11:53:20;12.70;77.40
23633;DHT22;11993;48.748;9.166;2024-03-29T11:55:46;12.70;77.40
23633;DHT22;11993;48.748;9.166;2024-03-29T11:58:14;12.70;74.30
23633;DHT22;11993;48.748;9.166;2024-03-29T12:00:40;12.80;71.10
23633;DHT22;11993;48.748;9.166;2024-03-29T12:03:09;12.80;69.70
23633;DHT22;11993;48.748;9.166;2024-03-29T12:05:35;12.80;69.10
23633;DHT22;11993;48.748;9.166;2024-03-29T12:08:01;12.80;68.10
23633;DHT22;11993;48.748;9.166;2024-03-29T12:10:30;13.00;68.10
23633;DHT22;11993;48.748;9.166;2024-03-29T12:12:59;13.20;67.00
23633;DHT22;11993;48.748;9.166;2024-03-29T12:15:27;13.20;66.90
23633;DHT22;11993;48.748;9.166;2024-03-29T12:18:04;13.20;67.40
23633;DHT22;11993;48.748;9.166;2024-03-29T12:20:34;13.30;66.40
23633;DHT22;11993;48.748;9.166;2024-03-29T12:23:05;13.60;66.90
23633;DHT22;11993;48.748;9.166;2024-03-29T12:25:33;14.00;68.00
23633;DHT22;11993;48.748;9.166;2024-03-29T12:28:00;14.10;70.90
23633;DHT22;11993;48.748;9.166;2024-03-29T12:30:26;14.20;72.30
23633;DHT22;11993;48.748;9.166;2024-03-29T12:33:09;14.30;71.50
23633;DHT22;11993;48.748;9.166;2024-03-29T12:35:36;14.50;69.80
23633;DHT22;11993;48.748;9.166;2024-03-29T12:38:03;14.70;69.40
23633;DHT22;11993;48.748;9.166;2024-03-29T12:40:31;14.90;69.60
23633;DHT22;11993;48.748;9.166;2024-03-29T12:43:03;14.70;70.00
23633;DHT22;11993;48.748;9.166;2024-03-29T12:45:28;14.20;71.20
23633;DHT22;11993;48.748;9.166;2024-03-29T12:47:54;14.40;70.90
23633;DHT22;11993;48.748;9.166;2024-03-29T12:50:28;14.80;69.80
23633;DHT22;11993;48.748;9.166;2024-03-29T12:52:57;15.20;68.40
23633;DHT22;11993;48.748;9.166;2024-03-29T12:55:23;15.30;67.60
23633;DHT22;11993;48.748;9.166;2024-03-29T12:57:49;15.30;66.40
23633;DHT22;11993;48.748;9.166;2024-03-29T13:00:19;15.20;66.00
23633;DHT22;11993;48.748;9.166;2024-03-29T13:02:44;14.80;66.50
23633;DHT22;11993;48.748;9.166;2024-03-29T13:05:10;14.80;67.70
23633;DHT22;11993;48.748;9.166;2024-03-29T13:07:36;15.00;68.20
23633;DHT22;11993;48.748;9.166;2024-03-29T13:10:02;15.00;67.40
23633;DHT22;11993;48.748;9.166;2024-03-29T13:12:31;15.60;67.20
23633;DHT22;11993;48.748;9.166;2024-03-29T13:15:01;16.20;65.30
23633;DHT22;11993;48.748;9.166;2024-03-29T13:17:27;16.70;61.90
23633;DHT22;11993;48.748;9.166;2024-03-29T13:19:53;17.30;61.00
23633;DHT22;11993;48.748;9.166;2024-03-29T13:22:18;17.40;59.20
23633;DHT22;11993;48.748;9.166;2024-03-29T13:24:44;17.10;59.50
23633;DHT22;11993;48.748;9.166;2024-03-29T13:27:09;17.20;59.20
23633;DHT22;11993;48.748;9.166;2024-03-29T13:29:35;17.50;58.00
23633;DHT22;11993;48.748;9.166;2024-03-29T13:32:01;17.40;59.60
23633;DHT22;11993;48.748;9.166;2024-03-29T13:34:26;17.50;57.70
23633;DHT22;11993;48.748;9.166;2024-03-29T13:36:51;17.20;59.20
23633;DHT22;11993;48.748;9.166;2024-03-29T13:39:17;17.50;57.80
23633;DHT22;11993;48.748;9.166;2024-03-29T13:41:43;17.60;58.40
23633;DHT22;11993;48.748;9.166;2024-03-29T13:44:08;18.10;56.60
23633;DHT22;11993;48.748;9.166;2024-03-29T13:46:35;18.30;56.80
23633;DHT22;11993;48.748;9.166;2024-03-29T13:49:02;18.20;55.10
23633;DHT22;11993;48.748;9.166;2024-03-29T13:51:29;18.00;57.80
23633;DHT22;11993;48.748;9.166;2024-03-29T13:53:54;18.20;56.80
23633;DHT22;11993;48.748;9.166;2024-03-29T13:56:20;18.40;56.50
23633;DHT22;11993;48.748;9.166;2024-03-29T13:58:46;18.80;54.20
23633;DHT22;11993;48.748;9.166;2024-03-29T14:01:12;18.80;55.40
23633;DHT22;11993;48.748;9.166;2024-03-29T14:03:38;18.70;53.90
23633;DHT22;11993;48.748;9.166;2024-03-29T14:06:04;18.60;54.50
23633;DHT22;11993;48.748;9.166;2024-03-29T14:08:30;19.00;54.20
23633;DHT22;11993;48.748;9.166;2024-03-29T14:10:57;19.10;55.10
23633;DHT22;11993;48.748;9.166;2024-03-29T14:13:22;19.40;54.00
23633;DHT22;11993;48.748;9.166;2024-03-29T14:15:49;19.40;54.70
23633;DHT22;11993;48.748;9.166;2024-03-29T14:18:14;19.60;53.90
23633;DHT22;11993;48.748;9.166;2024-03-29T14:20:40;19.20;54.70
23633;DHT22;11993;48.748;9.166;2024-03-29T14:23:05;18.80;55.90
23633;DHT22;11993;48.748;9.166;2024-03-29T14:25:32;18.80;56.80
23633;DHT22;11993;48.748;9.166;2024-03-29T14:27:59;18.60;57.90
23633;DHT22;11993;48.748;9.166;2024-03-29T14:30:27;19.00;56.60
23633;DHT22;11993;48.748;9.166;2024-03-29T14:32:52;19.60;53.60
23633;DHT22;11993;48.748;9.166;2024-03-29T14:35:19;19.50;53.10
23633;DHT22;11993;48.748;9.166;2024-03-29T14:37:45;19.60;52.60
23633;DHT22;11993;48.748;9.166;2024-03-29T14:40:12;19.10;53.80
23633;DHT22;11993;48.748;9.166;2024-03-29T14:42:38;19.10;53.70
23633;DHT22;11993;48.748;9.166;2024-03-29T14:45:04;19.20;53.60
23633;DHT22;11993;48.748;9.166;2024-03-29T14:47:31;19.30;54.20
23633;DHT22;11993;48.748;9.166;2024-03-29T14:50:01;19.60;52.80
23633;DHT22;11993;48.748;9.166;2024-03-29T14:52:28;19.20;52.80
23633;DHT22;11993;48.748;9.166;2024-03-29T14:54:54;19.00;53.60
23633;DHT22;11993;48.748;9.166;2024-03-29T14:57:20;18.50;53.40
23633;DHT22;11993;48.748;9.166;2024-03-29T14:59:50;18.70;53.10
23633;DHT22;11993;48.748;9.166;2024-03-29T15:02:16;18.30;54.00
23633;DHT22;11993;48.748;9.166;2024-03-29T15:04:42;18.30;54.30
23633;DHT22;11993;48.748;9.166;2024-03-29T15:07:07;18.10;55.00
23633;DHT22;11993;48.748;9.166;2024-03-29T15:09:33;18.00;55.60
23633;DHT22;11993;48.748;9.166;2024-03-29T15:12:00;18.00;55.30
23633;DHT22;11993;48.748;9.166;2024-03-29T15:14:27;17.80;55.80
23633;DHT22;11993;48.748;9.166;2024-03-29T15:16:53;17.60;56.10
23633;DHT22;11993;48.748;9.166;2024-03-29T15:19:18;17.70;55.70
23633;DHT22;11993;48.748;9.166;2024-03-29T15:21:44;17.60;56.00
23633;DHT22;11993;48.748;9.166;2024-03-29T15:24:09;17.30;57.30
23633;DHT22;11993;48.748;9.166;2024-03-29T15:26:35;17.10;58.00
23633;DHT22;11993;48.748;9.166;2024-03-29T15:29:03;17.10;58.50
23633;DHT22;11993;48.748;9.166;2024-03-29T15:31:40;17.00;58.80
23633;DHT22;11993;48.748;9.166;2024-03-29T15:34:06;17.20;57.10
23633;DHT22;11993;48.748;9.166;2024-03-29T15:36:34;16.80;58.70
23633;DHT22;11993;48.748;9.166;2024-03-29T15:39:01;16.70;59.10
23633;DHT22;11993;48.748;9.166;2024-03-29T15:41:45;16.70;57.70
23633;DHT22;11993;48.748;9.166;2024-03-29T15:44:11;16.70;58.40
23633;DHT22;11993;48.748;9.166;2024-03-29T15:46:37;16.60;58.80